Terminal Aerodrome Forecast
Issued by NWS

Home | Current Version | Previous Version | Text Only | Print | Product List | Glossary On
Versions: 1 2 3 4 5 6 7 8 9 10 11 12 13 14 15 16 17 18 19 20 21 22 23 24 25
000
FTUS43 KLSX 031725
TAFUIN
TAF
KUIN 031725Z 0318/0418 29008KT P6SM SCT060
     FM040000 24007KT P6SM SCT250
     FM040500 24013KT P6SM VCSH BKN070
     FM040900 29012G18KT P6SM SCT250
     FM041400 34015G23KT P6SM FEW250=

USA.gov is the U.S. government's official web portal to all federal, state and local government web resources and services.